createdAt,value
2018-12-21T00:01:55.219Z,1.90
2018-12-21T00:04:23.977Z,1.70
2018-12-21T00:06:52.612Z,1.90
2018-12-21T00:09:21.119Z,2.00
2018-12-21T00:11:49.600Z,1.70
2018-12-21T00:14:18.057Z,1.70
2018-12-21T00:16:47.601Z,1.80
2018-12-21T00:19:16.253Z,1.77
2018-12-21T00:21:44.747Z,1.80
2018-12-21T00:24:13.228Z,1.77
2018-12-21T00:26:41.912Z,1.70
2018-12-21T00:29:10.369Z,1.60
2018-12-21T00:31:44.689Z,1.50
2018-12-21T00:34:18.745Z,1.70
2018-12-21T00:36:52.895Z,1.60
2018-12-21T00:39:26.944Z,1.60
2018-12-21T00:41:54.939Z,1.60
2018-12-21T00:44:29.042Z,1.40
2018-12-21T00:47:01.236Z,1.37
2018-12-21T00:49:30.241Z,1.50
2018-12-21T00:51:59.277Z,1.60
2018-12-21T00:54:27.760Z,1.50
2018-12-21T00:56:56.017Z,1.70
2018-12-21T00:59:24.711Z,1.70
2018-12-21T01:01:53.350Z,1.50
2018-12-21T01:04:22.104Z,1.70
2018-12-21T01:06:50.572Z,1.70
2018-12-21T01:09:19.087Z,1.50
2018-12-21T01:11:47.519Z,1.70
2018-12-21T01:14:16.251Z,1.50
2018-12-21T01:16:45.351Z,1.83
2018-12-21T01:19:14.229Z,1.90
2018-12-21T01:21:42.670Z,1.80
2018-12-21T01:24:11.167Z,1.83
2018-12-21T01:26:39.664Z,2.00
2018-12-21T01:29:08.109Z,1.80
2018-12-21T01:31:36.609Z,1.80
2018-12-21T01:34:05.396Z,1.70
2018-12-21T01:36:34.202Z,1.80
2018-12-21T01:39:03.730Z,1.93
2018-12-21T01:41:32.589Z,1.80
2018-12-21T01:44:01.045Z,1.70
2018-12-21T01:46:29.564Z,1.90
2018-12-21T01:48:58.227Z,1.90
2018-12-21T01:51:26.709Z,1.90
2018-12-21T01:53:55.200Z,1.90
2018-12-21T01:56:24.115Z,1.80
2018-12-21T01:58:52.541Z,1.90
2018-12-21T02:01:21.467Z,1.90
2018-12-21T02:03:50.265Z,2.03
2018-12-21T02:06:19.031Z,2.20
2018-12-21T02:08:47.515Z,2.50
2018-12-21T02:11:16.187Z,2.00
2018-12-21T02:13:44.676Z,2.00
2018-12-21T02:16:13.172Z,2.00
2018-12-21T02:18:41.157Z,1.97
2018-12-21T02:21:09.517Z,1.97
2018-12-21T02:23:37.657Z,1.80
2018-12-21T02:26:05.618Z,1.90
2018-12-21T02:28:34.324Z,1.70
2018-12-21T02:31:02.826Z,1.73
2018-12-21T02:33:31.498Z,1.70
2018-12-21T02:35:59.961Z,1.80
2018-12-21T02:38:28.665Z,1.90
2018-12-21T02:40:57.545Z,2.10
2018-12-21T02:43:26.220Z,1.83
2018-12-21T02:45:55.122Z,1.70
2018-12-21T02:48:23.812Z,1.90
2018-12-21T02:50:52.372Z,1.60
2018-12-21T02:53:20.983Z,1.80
2018-12-21T02:55:49.464Z,1.83
2018-12-21T02:58:19.352Z,1.50
2018-12-21T03:00:48.158Z,1.60
2018-12-21T03:03:16.960Z,1.70
2018-12-21T03:05:45.408Z,1.80
2018-12-21T03:08:14.147Z,1.80
2018-12-21T03:10:42.806Z,1.83
2018-12-21T03:13:11.270Z,1.70
2018-12-21T03:15:39.994Z,1.87
2018-12-21T03:18:08.460Z,1.87
2018-12-21T03:21:39.314Z,1.77
2018-12-21T03:24:07.269Z,2.00
2018-12-21T03:26:35.235Z,1.80
2018-12-21T03:29:03.232Z,1.90
2018-12-21T03:31:31.285Z,1.80
2018-12-21T03:33:59.254Z,1.80
2018-12-21T03:36:27.245Z,1.77
2018-12-21T03:38:55.201Z,2.10
2018-12-21T03:41:23.520Z,1.87
2018-12-21T03:43:51.504Z,2.00
2018-12-21T03:46:19.509Z,2.17
2018-12-21T03:48:47.473Z,2.20
2018-12-21T03:51:16.706Z,2.40
2018-12-21T03:53:44.679Z,2.40
2018-12-21T03:56:12.648Z,2.27
2018-12-21T03:58:40.614Z,2.33
2018-12-21T04:01:08.723Z,2.30
2018-12-21T04:03:37.636Z,2.53
2018-12-21T04:06:06.135Z,2.60
2018-12-21T04:08:34.109Z,2.33
2018-12-21T04:11:02.204Z,2.30
2018-12-21T04:13:30.176Z,2.40
2018-12-21T04:15:58.135Z,2.20
2018-12-21T04:18:26.105Z,2.20
2018-12-21T04:20:54.069Z,2.40
2018-12-21T04:23:22.036Z,2.10
2018-12-21T04:25:50.612Z,2.30
2018-12-21T04:28:18.725Z,2.80
2018-12-21T04:30:46.768Z,2.50
2018-12-21T04:33:14.713Z,2.73
2018-12-21T04:35:42.738Z,2.53
2018-12-21T04:38:10.697Z,2.50
2018-12-21T04:40:38.653Z,2.50
2018-12-21T04:43:06.709Z,2.33
2018-12-21T04:45:34.668Z,2.20
2018-12-21T04:48:03.829Z,2.30
2018-12-21T04:50:31.827Z,2.60
2018-12-21T04:52:59.789Z,2.40
2018-12-21T04:55:27.738Z,2.27
2018-12-21T04:57:55.706Z,2.60
2018-12-21T05:00:24.424Z,2.50
2018-12-21T05:02:52.510Z,2.30
2018-12-21T05:05:20.513Z,2.20
2018-12-21T05:07:48.529Z,2.47
2018-12-21T05:10:16.504Z,2.57
2018-12-21T05:12:44.484Z,2.60
2018-12-21T05:15:12.446Z,2.60
2018-12-21T05:17:40.391Z,2.40
2018-12-21T05:20:08.508Z,2.30
2018-12-21T05:22:36.443Z,2.63
2018-12-21T05:25:05.420Z,2.43
2018-12-21T05:27:33.451Z,2.40
2018-12-21T05:36:46.471Z,2.50
2018-12-21T05:39:14.548Z,2.30
2018-12-21T05:41:42.492Z,2.60
2018-12-21T05:44:10.520Z,2.37
2018-12-21T05:46:38.504Z,2.20
2018-12-21T05:49:06.443Z,2.10
2018-12-21T05:51:35.076Z,2.50
2018-12-21T05:54:03.019Z,2.17
2018-12-21T05:56:31.832Z,2.17
2018-12-21T05:59:00.325Z,2.23
2018-12-21T06:01:29.000Z,2.40
2018-12-21T06:03:57.334Z,2.13
2018-12-21T06:06:25.328Z,2.00
2018-12-21T06:08:53.875Z,2.10
2018-12-21T06:11:30.438Z,1.93
2018-12-21T06:14:01.075Z,2.10
2018-12-21T06:16:29.527Z,1.90
2018-12-21T06:18:57.481Z,2.50
2018-12-21T06:21:25.451Z,2.00
2018-12-21T06:23:53.460Z,2.30
2018-12-21T06:26:21.465Z,2.20
2018-12-21T06:28:50.093Z,2.17
2018-12-21T06:31:18.796Z,2.03
2018-12-21T06:33:46.948Z,1.93
2018-12-21T06:36:15.306Z,2.00
2018-12-21T06:38:50.358Z,2.13
2018-12-21T06:41:20.459Z,1.80
2018-12-21T06:43:49.973Z,1.73
2018-12-21T06:46:20.643Z,2.00
2018-12-21T06:48:49.403Z,1.80
2018-12-21T06:51:18.386Z,1.90
2018-12-21T06:53:47.798Z,2.00
2018-12-21T06:56:15.974Z,1.60
2018-12-21T06:58:43.965Z,1.90
2018-12-21T07:01:28.864Z,1.90
2018-12-21T07:03:56.863Z,2.20
2018-12-21T07:06:24.848Z,2.00
2018-12-21T07:08:52.849Z,2.00
2018-12-21T07:11:21.496Z,1.90
2018-12-21T07:13:49.544Z,2.00
2018-12-21T07:16:17.854Z,1.77
2018-12-21T07:18:46.551Z,2.00
2018-12-21T07:21:15.424Z,2.10
2018-12-21T07:23:43.900Z,1.90
2018-12-21T07:26:15.595Z,1.90
2018-12-21T07:28:43.884Z,2.37
2018-12-21T07:31:11.903Z,2.40
2018-12-21T07:33:39.917Z,2.20
2018-12-21T07:36:08.942Z,2.07
2018-12-21T07:38:38.067Z,2.17
2018-12-21T07:41:06.557Z,2.00
2018-12-21T07:43:35.460Z,1.80
2018-12-21T07:46:04.120Z,1.90
2018-12-21T07:48:32.157Z,1.80
2018-12-21T07:51:00.180Z,1.90
2018-12-21T07:53:35.694Z,1.87
2018-12-21T07:55:58.266Z,1.50
2018-12-21T07:58:27.176Z,1.77
2018-12-21T08:00:57.045Z,1.50
2018-12-21T08:03:25.727Z,1.40
2018-12-21T08:05:54.450Z,1.50
2018-12-21T08:08:23.095Z,1.50
2018-12-21T08:10:51.830Z,1.40
2018-12-21T08:13:20.503Z,1.47
2018-12-21T08:15:49.143Z,1.37
2018-12-21T08:18:18.029Z,1.60
2018-12-21T08:20:46.566Z,1.40
2018-12-21T08:23:15.416Z,1.50
2018-12-21T08:25:44.100Z,1.37
2018-12-21T08:28:12.818Z,1.50
2018-12-21T08:30:40.793Z,1.47
2018-12-21T08:33:08.835Z,1.50
2018-12-21T08:35:36.857Z,1.40
2018-12-21T08:38:04.826Z,1.20
2018-12-21T08:40:32.837Z,1.40
2018-12-21T08:43:00.827Z,1.60
2018-12-21T08:45:28.808Z,1.40
2018-12-21T08:47:56.810Z,1.40
2018-12-21T08:50:25.444Z,1.50
2018-12-21T08:52:54.142Z,1.20
2018-12-21T08:55:23.017Z,1.30
2018-12-21T08:57:51.503Z,1.40
2018-12-21T09:00:20.208Z,1.50
2018-12-21T09:02:48.828Z,1.40
2018-12-21T09:05:17.364Z,1.40
2018-12-21T09:07:45.789Z,1.50
2018-12-21T09:10:14.496Z,1.50
2018-12-21T09:12:42.981Z,1.50
2018-12-21T09:15:15.298Z,1.50
2018-12-21T09:17:43.864Z,1.40
2018-12-21T09:20:12.528Z,1.47
2018-12-21T09:22:41.411Z,1.30
2018-12-21T09:25:09.899Z,1.30
2018-12-21T09:27:38.562Z,1.50
2018-12-21T09:30:11.760Z,1.50
2018-12-21T09:32:40.437Z,1.63
2018-12-21T09:35:09.339Z,1.47
2018-12-21T09:37:37.872Z,1.60
2018-12-21T09:40:10.434Z,1.47
2018-12-21T09:42:40.554Z,1.50
2018-12-21T09:45:09.417Z,1.40
2018-12-21T09:47:37.890Z,1.60
2018-12-21T09:50:08.501Z,1.67
2018-12-21T09:52:37.309Z,1.50
2018-12-21T09:55:07.391Z,1.63
2018-12-21T09:57:36.152Z,1.53
2018-12-21T10:00:06.448Z,1.50
2018-12-21T10:02:35.837Z,1.40
2018-12-21T10:05:06.008Z,1.60
2018-12-21T10:07:34.753Z,1.50
2018-12-21T10:10:04.917Z,1.50
2018-12-21T10:12:33.570Z,1.70
2018-12-21T10:15:02.591Z,1.50
2018-12-21T10:17:31.310Z,1.60
2018-12-21T10:19:59.816Z,1.90
2018-12-21T10:22:28.303Z,1.70
2018-12-21T10:24:57.086Z,1.80
2018-12-21T10:27:25.161Z,1.63
2018-12-21T10:29:53.169Z,1.80
2018-12-21T10:32:21.210Z,1.50
2018-12-21T10:34:51.126Z,1.50
2018-12-21T10:37:19.811Z,1.60
2018-12-21T10:39:48.517Z,1.70
2018-12-21T10:42:16.553Z,1.70
2018-12-21T10:44:44.561Z,1.60
2018-12-21T10:47:12.603Z,1.50
2018-12-21T10:49:40.633Z,1.70
2018-12-21T10:52:09.459Z,1.73
2018-12-21T10:54:38.170Z,1.70
2018-12-21T10:57:07.030Z,1.80
2018-12-21T10:59:43.171Z,1.60
2018-12-21T11:02:06.242Z,1.60
2018-12-21T11:04:34.935Z,1.53
2018-12-21T11:07:04.012Z,1.47
2018-12-21T11:09:32.546Z,1.53
2018-12-21T11:12:01.404Z,1.50
2018-12-21T11:14:30.073Z,1.70
2018-12-21T11:16:58.809Z,1.70
2018-12-21T11:19:27.454Z,1.70
2018-12-21T11:21:56.285Z,1.67
2018-12-21T11:24:24.849Z,1.80
2018-12-21T11:26:53.493Z,1.70
2018-12-21T11:29:21.991Z,1.60
2018-12-21T11:31:51.193Z,1.67
2018-12-21T11:34:19.984Z,1.80
2018-12-21T11:36:48.852Z,1.60
2018-12-21T11:39:17.193Z,1.70
2018-12-21T11:41:45.803Z,1.67
2018-12-21T11:44:14.284Z,1.80
2018-12-21T11:46:43.388Z,1.50
2018-12-21T11:49:11.373Z,1.53
2018-12-21T11:51:39.440Z,1.50
2018-12-21T11:54:07.639Z,1.57
2018-12-21T11:56:35.693Z,1.63
2018-12-21T11:59:03.724Z,1.50
2018-12-21T12:01:31.798Z,1.40
2018-12-21T12:03:59.889Z,1.70
2018-12-21T12:06:27.921Z,1.70
2018-12-21T12:08:56.470Z,1.80
2018-12-21T12:11:24.989Z,1.77
2018-12-21T12:13:53.024Z,1.43
2018-12-21T12:16:28.630Z,1.80
2018-12-21T12:18:58.167Z,1.50
2018-12-21T12:21:26.191Z,1.40
2018-12-21T12:23:54.229Z,1.40
2018-12-21T12:26:22.254Z,1.60
2018-12-21T12:28:50.265Z,1.70
2018-12-21T12:31:19.229Z,1.50
2018-12-21T12:33:47.268Z,1.60
2018-12-21T12:36:16.102Z,1.57
2018-12-21T12:38:44.798Z,1.57
2018-12-21T12:41:13.456Z,1.40
2018-12-21T12:43:42.125Z,1.43
2018-12-21T12:46:10.611Z,1.80
2018-12-21T12:48:39.296Z,1.80
2018-12-21T12:51:07.640Z,1.90
2018-12-21T12:53:36.485Z,2.10
2018-12-21T12:56:05.500Z,1.80
2018-12-21T12:58:34.054Z,1.77
2018-12-21T13:01:03.090Z,2.00
2018-12-21T13:03:31.620Z,2.50
2018-12-21T13:06:00.114Z,1.87
2018-12-21T13:08:29.027Z,1.90
2018-12-21T13:10:57.111Z,1.70
2018-12-21T13:13:25.967Z,1.60
2018-12-21T13:15:54.017Z,1.80
2018-12-21T13:18:22.038Z,2.03
2018-12-21T13:20:50.011Z,2.23
2018-12-21T13:23:18.105Z,3.97
2018-12-21T13:25:46.161Z,7.43
2018-12-21T13:28:14.803Z,9.00
2018-12-21T13:30:44.511Z,2.60
2018-12-21T13:33:13.426Z,6.57
2018-12-21T13:35:42.186Z,2.30
2018-12-21T13:38:10.796Z,3.70
2018-12-21T13:40:39.468Z,4.53
2018-12-21T13:43:08.142Z,4.63
2018-12-21T13:45:37.788Z,6.37
2018-12-21T13:48:06.309Z,3.87
2018-12-21T13:50:34.876Z,7.40
2018-12-21T13:53:04.048Z,28.17
2018-12-21T13:55:32.780Z,7.33
2018-12-21T13:58:02.689Z,11.77
2018-12-21T14:00:31.382Z,13.97
2018-12-21T14:02:59.854Z,31.63
2018-12-21T14:05:28.591Z,3.43
2018-12-21T14:07:57.101Z,15.07
2018-12-21T14:10:25.912Z,13.30
2018-12-21T14:12:54.831Z,22.80
2018-12-21T14:15:23.465Z,13.87
2018-12-21T14:17:52.005Z,35.37
2018-12-21T14:20:20.761Z,9.13
2018-12-21T14:22:49.371Z,2.80
2018-12-21T14:25:18.038Z,3.10
2018-12-21T14:27:46.734Z,11.67
2018-12-21T14:30:15.685Z,14.93
2018-12-21T14:32:44.318Z,4.20
2018-12-21T14:35:12.994Z,9.33
2018-12-21T14:37:42.192Z,12.27
2018-12-21T14:40:11.379Z,4.17
2018-12-21T14:42:40.717Z,8.63
2018-12-21T14:45:09.614Z,18.17
2018-12-21T14:47:38.855Z,17.00
2018-12-21T14:50:09.142Z,6.77
2018-12-21T14:52:37.691Z,10.43
2018-12-21T14:55:06.708Z,18.77
2018-12-21T14:57:35.283Z,15.53
2018-12-21T15:00:07.828Z,13.20
2018-12-21T15:02:36.927Z,22.27
2018-12-21T15:05:05.836Z,9.07
2018-12-21T15:07:34.713Z,2.90
2018-12-21T15:10:04.172Z,14.40
2018-12-21T15:12:32.922Z,6.93
2018-12-21T15:15:01.587Z,7.37
2018-12-21T15:17:31.225Z,9.80
2018-12-21T15:20:00.630Z,8.20
2018-12-21T15:22:29.694Z,7.93
2018-12-21T15:24:58.687Z,7.13
2018-12-21T15:27:27.484Z,19.33
2018-12-21T15:29:57.214Z,9.47
2018-12-21T15:32:25.271Z,6.73
2018-12-21T15:34:53.321Z,3.97
2018-12-21T15:37:21.329Z,3.50
2018-12-21T15:39:49.519Z,4.43
2018-12-21T15:42:17.931Z,2.37
2018-12-21T15:44:46.007Z,3.50
2018-12-21T15:47:14.058Z,5.33
2018-12-21T15:49:42.752Z,4.47
2018-12-21T15:52:11.449Z,1.90
2018-12-21T15:54:39.546Z,4.53
2018-12-21T15:57:07.558Z,5.93
2018-12-21T15:59:35.569Z,3.70
2018-12-21T16:02:03.801Z,2.13
2018-12-21T16:04:31.794Z,2.20
2018-12-21T16:06:59.819Z,2.80
2018-12-21T16:09:27.868Z,3.50
2018-12-21T16:11:55.906Z,1.80
2018-12-21T16:14:23.918Z,2.20
2018-12-21T16:16:51.983Z,2.50
2018-12-21T16:19:20.615Z,2.00
2018-12-21T16:21:48.701Z,2.60
2018-12-21T16:24:17.217Z,3.20
2018-12-21T16:26:45.902Z,1.90
2018-12-21T16:29:14.757Z,2.50
2018-12-21T16:31:43.265Z,2.00
2018-12-21T16:34:12.159Z,2.57
2018-12-21T16:36:40.821Z,2.10
2018-12-21T16:39:09.743Z,2.47
2018-12-21T16:41:38.602Z,2.00
2018-12-21T16:44:07.084Z,1.87
2018-12-21T16:46:36.296Z,1.80
2018-12-21T16:49:05.085Z,2.13
2018-12-21T16:51:33.746Z,2.30
2018-12-21T16:54:02.667Z,1.80
2018-12-21T16:56:31.407Z,1.60
2018-12-21T16:59:00.016Z,2.00
2018-12-21T17:01:28.522Z,1.80
2018-12-21T17:03:57.177Z,2.40
2018-12-21T17:06:25.566Z,1.70
2018-12-21T17:08:54.194Z,1.57
2018-12-21T17:11:22.985Z,1.63
2018-12-21T17:13:51.736Z,1.80
2018-12-21T17:16:20.290Z,1.60
2018-12-21T17:18:48.864Z,1.70
2018-12-21T17:21:20.393Z,1.63
2018-12-21T17:23:49.115Z,1.60
2018-12-21T17:26:21.406Z,1.57
2018-12-21T17:28:52.134Z,1.60
2018-12-21T17:31:20.691Z,1.70
2018-12-21T17:33:49.036Z,1.97
2018-12-21T17:36:17.688Z,2.03
2018-12-21T17:38:46.535Z,1.80
2018-12-21T17:41:15.456Z,1.70
2018-12-21T17:43:44.358Z,1.80
2018-12-21T17:46:12.795Z,1.80
2018-12-21T17:48:41.497Z,1.77
2018-12-21T17:51:10.400Z,1.80
2018-12-21T17:53:39.163Z,1.83
2018-12-21T17:56:07.783Z,1.70
2018-12-21T17:58:36.726Z,1.80
2018-12-21T18:01:06.530Z,1.80
2018-12-21T18:03:52.038Z,2.00
2018-12-21T18:06:20.725Z,1.77
2018-12-21T18:08:49.413Z,2.10
2018-12-21T18:14:14.712Z,1.80
2018-12-21T18:16:43.291Z,1.87
2018-12-21T18:19:11.821Z,2.13
2018-12-21T18:21:50.520Z,1.90
2018-12-21T18:24:18.553Z,1.70
2018-12-21T18:26:46.551Z,2.17
2018-12-21T18:29:14.783Z,1.90
2018-12-21T18:31:53.302Z,2.00
2018-12-21T18:34:31.804Z,1.90
2018-12-21T18:37:00.198Z,1.90
2018-12-21T18:39:28.439Z,3.30
2018-12-21T18:41:59.951Z,2.10
2018-12-21T18:44:28.600Z,2.13
2018-12-21T18:46:57.829Z,2.40
2018-12-21T18:49:26.353Z,2.47
2018-12-21T18:51:54.344Z,2.23
2018-12-21T18:54:22.497Z,2.27
2018-12-21T18:56:55.345Z,2.23
2018-12-21T18:59:23.431Z,2.47
2018-12-21T19:01:51.579Z,2.40
2018-12-21T19:04:19.655Z,2.30
2018-12-21T19:06:47.690Z,2.10
2018-12-21T19:09:16.659Z,2.20
2018-12-21T19:11:45.751Z,2.40
2018-12-21T19:14:14.493Z,2.30
2018-12-21T19:16:43.903Z,2.40
2018-12-21T19:19:12.838Z,2.40
2018-12-21T19:21:41.301Z,2.40
2018-12-21T19:24:10.428Z,2.30
2018-12-21T19:26:39.138Z,2.50
2018-12-21T19:29:07.601Z,2.23
2018-12-21T19:31:36.467Z,2.47
2018-12-21T19:34:05.208Z,2.33
2018-12-21T19:36:33.832Z,2.57
2018-12-21T19:39:01.943Z,2.70
2018-12-21T19:41:31.256Z,2.30
2018-12-21T19:43:59.319Z,2.60
2018-12-21T19:46:27.932Z,3.00
2018-12-21T19:48:56.424Z,3.10
2018-12-21T19:51:24.900Z,3.30
2018-12-21T19:53:53.000Z,3.37
2018-12-21T19:57:25.352Z,3.10
2018-12-21T19:59:54.253Z,2.90
2018-12-21T20:02:22.947Z,2.87
2018-12-21T20:04:51.666Z,3.47
2018-12-21T20:07:20.309Z,3.17
2018-12-21T20:09:49.097Z,3.07
2018-12-21T20:12:17.720Z,2.87
2018-12-21T20:14:46.579Z,2.97
2018-12-21T20:17:15.261Z,2.70
2018-12-21T20:19:43.306Z,3.17
2018-12-21T20:22:11.359Z,3.00
2018-12-21T20:24:40.451Z,2.93
2018-12-21T20:27:13.828Z,3.17
2018-12-21T20:29:41.920Z,3.57
2018-12-21T20:32:10.142Z,3.70
2018-12-21T20:34:38.251Z,3.50
2018-12-21T20:37:06.321Z,3.70
2018-12-21T20:39:36.262Z,4.93
2018-12-21T20:42:04.390Z,6.70
2018-12-21T20:44:32.461Z,4.73
2018-12-21T20:47:02.859Z,5.50
2018-12-21T20:49:30.942Z,4.57
2018-12-21T20:52:00.026Z,4.10
2018-12-21T20:54:28.244Z,4.40
2018-12-21T20:56:58.795Z,5.27
2018-12-21T20:59:27.263Z,4.37
2018-12-21T21:01:55.269Z,4.70
2018-12-21T21:04:23.314Z,5.37
2018-12-21T21:06:52.034Z,4.50
2018-12-21T21:09:20.037Z,5.77
2018-12-21T21:11:48.055Z,5.03
2018-12-21T21:14:17.726Z,4.80
2018-12-21T21:16:45.753Z,4.33
2018-12-21T21:19:13.770Z,5.00
2018-12-21T21:21:41.792Z,5.57
2018-12-21T21:24:09.822Z,4.33
2018-12-21T21:26:38.481Z,4.30
2018-12-21T21:29:06.491Z,4.70
2018-12-21T21:31:37.407Z,4.07
2018-12-21T21:34:06.177Z,4.10
2018-12-21T21:36:34.843Z,3.90
2018-12-21T21:39:05.518Z,3.90
2018-12-21T21:41:35.238Z,3.70
2018-12-21T21:44:03.758Z,3.83
2018-12-21T21:46:32.648Z,3.87
2018-12-21T21:49:00.728Z,4.03
2018-12-21T21:51:28.731Z,3.20
2018-12-21T21:53:56.760Z,3.50
2018-12-21T21:56:24.947Z,3.03
2018-12-21T21:58:52.911Z,3.23
2018-12-21T22:01:20.918Z,3.17
2018-12-21T22:03:48.898Z,3.70
2018-12-21T22:06:16.859Z,3.47
2018-12-21T22:08:44.860Z,4.00
2018-12-21T22:11:12.965Z,3.90
2018-12-21T22:13:40.939Z,3.47
2018-12-21T22:16:08.992Z,4.27
2018-12-21T22:18:37.276Z,4.03
2018-12-21T22:21:05.241Z,4.23
2018-12-21T22:23:33.233Z,3.80
2018-12-21T22:26:01.234Z,4.33
2018-12-21T22:28:29.226Z,4.37
2018-12-21T22:30:57.207Z,3.87
2018-12-21T22:33:25.236Z,4.07
2018-12-21T22:35:53.216Z,4.23
2018-12-21T22:38:21.189Z,4.37
2018-12-21T22:40:49.182Z,4.53
2018-12-21T22:43:17.230Z,3.90
2018-12-21T22:45:45.224Z,4.43
2018-12-21T22:48:13.225Z,4.20
2018-12-21T22:50:41.192Z,4.57
2018-12-21T22:53:09.393Z,4.03
2018-12-21T22:55:37.411Z,4.87
2018-12-21T22:58:05.408Z,4.37
2018-12-21T23:00:36.708Z,5.23
2018-12-21T23:03:04.714Z,4.30
2018-12-21T23:05:33.383Z,4.70
2018-12-21T23:08:01.536Z,4.30
2018-12-21T23:10:29.556Z,4.80
2018-12-21T23:12:57.568Z,4.77
2018-12-21T23:15:25.612Z,4.50
2018-12-21T23:17:53.604Z,4.43
2018-12-21T23:20:21.586Z,5.13
2018-12-21T23:22:49.557Z,5.13
2018-12-21T23:25:17.552Z,4.70
2018-12-21T23:27:45.687Z,4.70
2018-12-21T23:30:15.282Z,4.93
2018-12-21T23:32:44.518Z,5.17
2018-12-21T23:35:12.663Z,4.97
2018-12-21T23:37:40.637Z,5.23
2018-12-21T23:40:08.676Z,5.03
2018-12-21T23:42:36.696Z,4.50
2018-12-21T23:45:04.917Z,5.30
2018-12-21T23:47:32.935Z,5.03
2018-12-21T23:50:00.927Z,4.63
2018-12-21T23:52:29.102Z,5.07
2018-12-21T23:54:57.860Z,4.67
2018-12-21T23:57:25.820Z,5.47
2018-12-21T23:59:53.783Z,4.93
